Terminal Aerodrome Forecast
Issued by NWS Twin Cities, MN

Home | Current Version | Previous Version | Graphics & Text | Print | Product List | Glossary On
Versions: 1 2 3 4 5 6 7 8 9 10 11 12 13
000
FTUS43 KMPX 301545 AAA
TAFSTC
TAF AMD
KSTC 301545Z 3016/0112 04006KT P6SM BKN025
     FM301800 05007KT P6SM SCT040 SCT250
     FM010000 08004KT P6SM BKN200
     FM011000 11004KT P6SM BKN150=

USA.gov is the U.S. government's official web portal to all federal, state and local government web resources and services.